sensor_id;sensor_type;location;lat;lon;timestamp;temperature;humidity
36990;DHT22;22898;52.102;5.776;2023-05-09T00:00:12;24.40;99.80
36990;DHT22;22898;52.102;5.776;2023-05-09T00:02:38;24.30;99.90
36990;DHT22;22898;52.102;5.776;2023-05-09T00:05:05;24.30;99.90
36990;DHT22;22898;52.102;5.776;2023-05-09T00:07:32;24.30;99.90
36990;DHT22;22898;52.102;5.776;2023-05-09T00:09:58;24.30;99.90
36990;DHT22;22898;52.102;5.776;2023-05-09T00:12:23;24.20;99.90
36990;DHT22;22898;52.102;5.776;2023-05-09T00:14:49;24.30;99.90
36990;DHT22;22898;52.102;5.776;2023-05-09T00:17:16;24.20;99.90
36990;DHT22;22898;52.102;5.776;2023-05-09T00:19:43;24.20;99.90
36990;DHT22;22898;52.102;5.776;2023-05-09T00:22:08;24.20;99.90
36990;DHT22;22898;52.102;5.776;2023-05-09T00:24:34;24.20;99.90
36990;DHT22;22898;52.102;5.776;2023-05-09T00:27:00;24.20;99.90
36990;DHT22;22898;52.102;5.776;2023-05-09T00:29:25;24.20;99.90
36990;DHT22;22898;52.102;5.776;2023-05-09T00:31:51;24.20;99.90
36990;DHT22;22898;52.102;5.776;2023-05-09T00:34:16;24.20;99.90
36990;DHT22;22898;52.102;5.776;2023-05-09T00:36:42;24.20;99.90
36990;DHT22;22898;52.102;5.776;2023-05-09T00:39:07;24.10;99.90
36990;DHT22;22898;52.102;5.776;2023-05-09T00:41:34;24.20;99.90
36990;DHT22;22898;52.102;5.776;2023-05-09T00:43:59;24.10;99.90
36990;DHT22;22898;52.102;5.776;2023-05-09T00:46:25;24.10;99.90
36990;DHT22;22898;52.102;5.776;2023-05-09T00:48:51;24.10;99.90
36990;DHT22;22898;52.102;5.776;2023-05-09T00:51:17;24.10;99.90
36990;DHT22;22898;52.102;5.776;2023-05-09T00:53:43;24.20;99.90
36990;DHT22;22898;52.102;5.776;2023-05-09T00:56:10;24.30;99.90
36990;DHT22;22898;52.102;5.776;2023-05-09T00:58:37;24.20;99.90
36990;DHT22;22898;52.102;5.776;2023-05-09T01:01:02;24.20;99.90
36990;DHT22;22898;52.102;5.776;2023-05-09T01:03:29;24.10;99.90
36990;DHT22;22898;52.102;5.776;2023-05-09T01:06:29;24.20;99.90
36990;DHT22;22898;52.102;5.776;2023-05-09T01:08:55;24.20;99.90
36990;DHT22;22898;52.102;5.776;2023-05-09T01:12:10;24.20;99.90
36990;DHT22;22898;52.102;5.776;2023-05-09T01:15:07;24.20;99.90
36990;DHT22;22898;52.102;5.776;2023-05-09T01:17:15;24.30;99.90
36990;DHT22;22898;52.102;5.776;2023-05-09T01:20:17;24.30;99.90
36990;DHT22;22898;52.102;5.776;2023-05-09T01:22:53;24.40;99.90
36990;DHT22;22898;52.102;5.776;2023-05-09T01:26:01;24.30;99.90
36990;DHT22;22898;52.102;5.776;2023-05-09T01:28:34;24.20;99.90
36990;DHT22;22898;52.102;5.776;2023-05-09T01:31:02;24.30;99.90
36990;DHT22;22898;52.102;5.776;2023-05-09T01:33:32;24.40;99.90
36990;DHT22;22898;52.102;5.776;2023-05-09T01:36:04;24.30;99.90
36990;DHT22;22898;52.102;5.776;2023-05-09T01:38:31;24.30;99.90
36990;DHT22;22898;52.102;5.776;2023-05-09T01:40:59;24.40;99.90
36990;DHT22;22898;52.102;5.776;2023-05-09T01:43:27;24.30;99.90
36990;DHT22;22898;52.102;5.776;2023-05-09T01:45:54;24.30;99.90
36990;DHT22;22898;52.102;5.776;2023-05-09T01:48:21;24.30;99.90
36990;DHT22;22898;52.102;5.776;2023-05-09T01:50:51;24.20;99.90
36990;DHT22;22898;52.102;5.776;2023-05-09T01:53:18;24.20;99.90
36990;DHT22;22898;52.102;5.776;2023-05-09T01:55:44;24.20;99.90
36990;DHT22;22898;52.102;5.776;2023-05-09T01:58:11;24.30;99.90
36990;DHT22;22898;52.102;5.776;2023-05-09T02:00:37;24.40;99.90
36990;DHT22;22898;52.102;5.776;2023-05-09T02:03:05;24.40;99.90
36990;DHT22;22898;52.102;5.776;2023-05-09T02:05:31;24.50;99.90
36990;DHT22;22898;52.102;5.776;2023-05-09T02:07:58;24.40;99.90
36990;DHT22;22898;52.102;5.776;2023-05-09T02:10:26;24.30;99.90
36990;DHT22;22898;52.102;5.776;2023-05-09T02:12:53;24.30;99.90
36990;DHT22;22898;52.102;5.776;2023-05-09T02:15:18;24.20;99.90
36990;DHT22;22898;52.102;5.776;2023-05-09T02:17:44;24.30;99.90
36990;DHT22;22898;52.102;5.776;2023-05-09T02:20:10;24.30;99.90
36990;DHT22;22898;52.102;5.776;2023-05-09T02:22:36;24.30;99.90
36990;DHT22;22898;52.102;5.776;2023-05-09T02:25:05;24.20;99.90
36990;DHT22;22898;52.102;5.776;2023-05-09T02:27:32;24.20;99.90
36990;DHT22;22898;52.102;5.776;2023-05-09T02:30:02;24.20;99.90
36990;DHT22;22898;52.102;5.776;2023-05-09T02:32:31;24.20;99.90
36990;DHT22;22898;52.102;5.776;2023-05-09T02:35:00;24.20;99.90
36990;DHT22;22898;52.102;5.776;2023-05-09T02:37:26;24.20;99.90
36990;DHT22;22898;52.102;5.776;2023-05-09T02:39:52;24.20;99.90
36990;DHT22;22898;52.102;5.776;2023-05-09T02:42:22;24.20;99.90
36990;DHT22;22898;52.102;5.776;2023-05-09T02:44:53;24.10;99.90
36990;DHT22;22898;52.102;5.776;2023-05-09T02:47:19;24.10;99.90
36990;DHT22;22898;52.102;5.776;2023-05-09T02:49:45;24.00;99.90
36990;DHT22;22898;52.102;5.776;2023-05-09T02:52:10;24.00;99.90
36990;DHT22;22898;52.102;5.776;2023-05-09T02:54:37;23.90;99.90
36990;DHT22;22898;52.102;5.776;2023-05-09T02:57:03;24.00;99.90
36990;DHT22;22898;52.102;5.776;2023-05-09T02:59:30;24.00;99.90
36990;DHT22;22898;52.102;5.776;2023-05-09T03:01:56;23.90;99.90
36990;DHT22;22898;52.102;5.776;2023-05-09T03:04:21;23.90;99.90
36990;DHT22;22898;52.102;5.776;2023-05-09T03:06:47;23.90;99.90
36990;DHT22;22898;52.102;5.776;2023-05-09T03:09:13;23.90;99.90
36990;DHT22;22898;52.102;5.776;2023-05-09T03:11:38;23.80;99.90
36990;DHT22;22898;52.102;5.776;2023-05-09T03:14:04;23.70;99.90
36990;DHT22;22898;52.102;5.776;2023-05-09T03:16:32;23.70;99.90
36990;DHT22;22898;52.102;5.776;2023-05-09T03:18:58;23.80;99.90
36990;DHT22;22898;52.102;5.776;2023-05-09T03:21:23;23.80;99.90
36990;DHT22;22898;52.102;5.776;2023-05-09T03:23:49;23.90;99.90
36990;DHT22;22898;52.102;5.776;2023-05-09T03:26:14;23.90;99.90
36990;DHT22;22898;52.102;5.776;2023-05-09T03:28:40;23.90;99.90
36990;DHT22;22898;52.102;5.776;2023-05-09T03:31:06;23.90;99.90
36990;DHT22;22898;52.102;5.776;2023-05-09T03:33:31;24.00;99.90
36990;DHT22;22898;52.102;5.776;2023-05-09T03:35:57;24.00;99.90
36990;DHT22;22898;52.102;5.776;2023-05-09T03:38:22;23.90;99.90
36990;DHT22;22898;52.102;5.776;2023-05-09T03:40:49;23.90;99.90
36990;DHT22;22898;52.102;5.776;2023-05-09T03:43:15;24.00;99.90
36990;DHT22;22898;52.102;5.776;2023-05-09T03:45:41;24.00;99.90
36990;DHT22;22898;52.102;5.776;2023-05-09T03:48:06;24.00;99.90
36990;DHT22;22898;52.102;5.776;2023-05-09T03:50:34;24.00;99.90
36990;DHT22;22898;52.102;5.776;2023-05-09T03:53:00;24.00;99.90
36990;DHT22;22898;52.102;5.776;2023-05-09T03:55:26;24.00;99.90
36990;DHT22;22898;52.102;5.776;2023-05-09T03:57:52;24.00;99.90
36990;DHT22;22898;52.102;5.776;2023-05-09T04:00:18;24.00;99.90
36990;DHT22;22898;52.102;5.776;2023-05-09T04:02:43;23.90;99.90
36990;DHT22;22898;52.102;5.776;2023-05-09T04:05:09;23.90;99.90
36990;DHT22;22898;52.102;5.776;2023-05-09T04:07:34;23.80;99.90
36990;DHT22;22898;52.102;5.776;2023-05-09T04:10:00;23.90;99.90
36990;DHT22;22898;52.102;5.776;2023-05-09T04:12:26;23.90;99.90
36990;DHT22;22898;52.102;5.776;2023-05-09T04:14:51;23.70;99.90
36990;DHT22;22898;52.102;5.776;2023-05-09T04:17:17;23.60;99.90
36990;DHT22;22898;52.102;5.776;2023-05-09T04:19:43;23.60;99.90
36990;DHT22;22898;52.102;5.776;2023-05-09T04:22:08;23.60;99.90
36990;DHT22;22898;52.102;5.776;2023-05-09T04:24:34;23.60;99.90
36990;DHT22;22898;52.102;5.776;2023-05-09T04:27:00;23.60;99.90
36990;DHT22;22898;52.102;5.776;2023-05-09T04:29:26;23.60;99.90
36990;DHT22;22898;52.102;5.776;2023-05-09T04:31:52;23.60;99.90
36990;DHT22;22898;52.102;5.776;2023-05-09T04:34:17;23.70;99.90
36990;DHT22;22898;52.102;5.776;2023-05-09T04:36:43;23.70;99.90
36990;DHT22;22898;52.102;5.776;2023-05-09T04:39:09;23.70;99.90
36990;DHT22;22898;52.102;5.776;2023-05-09T04:41:35;23.60;99.90
36990;DHT22;22898;52.102;5.776;2023-05-09T04:44:01;23.80;99.90
36990;DHT22;22898;52.102;5.776;2023-05-09T04:46:27;23.70;99.90
36990;DHT22;22898;52.102;5.776;2023-05-09T04:48:53;23.60;99.90
36990;DHT22;22898;52.102;5.776;2023-05-09T04:51:18;23.50;99.90
36990;DHT22;22898;52.102;5.776;2023-05-09T04:53:44;23.60;99.90
36990;DHT22;22898;52.102;5.776;2023-05-09T04:56:10;23.60;99.90
36990;DHT22;22898;52.102;5.776;2023-05-09T04:58:35;23.70;99.90
36990;DHT22;22898;52.102;5.776;2023-05-09T05:01:05;23.80;99.90
36990;DHT22;22898;52.102;5.776;2023-05-09T05:03:31;23.80;99.90
36990;DHT22;22898;52.102;5.776;2023-05-09T05:05:56;24.00;99.90
36990;DHT22;22898;52.102;5.776;2023-05-09T05:08:22;24.00;99.90
36990;DHT22;22898;52.102;5.776;2023-05-09T05:10:47;24.00;99.90
36990;DHT22;22898;52.102;5.776;2023-05-09T05:13:14;24.00;99.90
36990;DHT22;22898;52.102;5.776;2023-05-09T05:15:40;24.10;99.90
36990;DHT22;22898;52.102;5.776;2023-05-09T05:18:06;24.20;99.90
36990;DHT22;22898;52.102;5.776;2023-05-09T05:20:32;24.20;99.90
36990;DHT22;22898;52.102;5.776;2023-05-09T05:22:57;24.30;99.90
36990;DHT22;22898;52.102;5.776;2023-05-09T05:25:24;24.40;99.90
36990;DHT22;22898;52.102;5.776;2023-05-09T05:27:49;24.40;99.90
36990;DHT22;22898;52.102;5.776;2023-05-09T05:30:15;24.50;99.90
36990;DHT22;22898;52.102;5.776;2023-05-09T05:32:41;24.60;99.70
36990;DHT22;22898;52.102;5.776;2023-05-09T05:35:08;24.60;99.50
36990;DHT22;22898;52.102;5.776;2023-05-09T05:37:36;24.50;99.60
36990;DHT22;22898;52.102;5.776;2023-05-09T05:40:04;24.50;99.80
36990;DHT22;22898;52.102;5.776;2023-05-09T05:42:30;24.70;99.40
36990;DHT22;22898;52.102;5.776;2023-05-09T05:44:56;24.80;99.30
36990;DHT22;22898;52.102;5.776;2023-05-09T05:47:21;24.70;99.20
36990;DHT22;22898;52.102;5.776;2023-05-09T05:49:47;24.80;99.20
36990;DHT22;22898;52.102;5.776;2023-05-09T05:52:12;24.90;99.10
36990;DHT22;22898;52.102;5.776;2023-05-09T05:54:39;25.00;98.90
36990;DHT22;22898;52.102;5.776;2023-05-09T05:57:04;25.00;99.00
36990;DHT22;22898;52.102;5.776;2023-05-09T05:59:30;25.00;98.80
36990;DHT22;22898;52.102;5.776;2023-05-09T06:01:56;24.60;98.80
36990;DHT22;22898;52.102;5.776;2023-05-09T06:04:21;24.50;99.10
36990;DHT22;22898;52.102;5.776;2023-05-09T06:06:47;24.50;98.90
36990;DHT22;22898;52.102;5.776;2023-05-09T06:09:12;24.50;99.00
36990;DHT22;22898;52.102;5.776;2023-05-09T06:11:38;24.70;98.90
36990;DHT22;22898;52.102;5.776;2023-05-09T06:14:05;24.80;98.70
36990;DHT22;22898;52.102;5.776;2023-05-09T06:16:30;25.00;98.50
36990;DHT22;22898;52.102;5.776;2023-05-09T06:18:56;25.10;98.30
36990;DHT22;22898;52.102;5.776;2023-05-09T06:21:22;25.10;98.40
36990;DHT22;22898;52.102;5.776;2023-05-09T06:23:48;25.10;98.00
36990;DHT22;22898;52.102;5.776;2023-05-09T06:26:13;24.90;98.50
36990;DHT22;22898;52.102;5.776;2023-05-09T06:28:39;24.90;98.40
36990;DHT22;22898;52.102;5.776;2023-05-09T06:31:05;25.00;98.20
36990;DHT22;22898;52.102;5.776;2023-05-09T06:33:31;24.80;98.10
36990;DHT22;22898;52.102;5.776;2023-05-09T06:35:58;24.70;98.70
36990;DHT22;22898;52.102;5.776;2023-05-09T06:38:24;24.70;98.30
36990;DHT22;22898;52.102;5.776;2023-05-09T06:40:49;24.70;98.20
36990;DHT22;22898;52.102;5.776;2023-05-09T06:43:15;24.70;98.30
36990;DHT22;22898;52.102;5.776;2023-05-09T06:45:41;24.90;97.90
36990;DHT22;22898;52.102;5.776;2023-05-09T06:48:06;25.30;97.70
36990;DHT22;22898;52.102;5.776;2023-05-09T06:50:32;25.30;97.40
36990;DHT22;22898;52.102;5.776;2023-05-09T06:52:57;25.20;98.00
36990;DHT22;22898;52.102;5.776;2023-05-09T06:55:23;25.00;97.70
36990;DHT22;22898;52.102;5.776;2023-05-09T06:57:49;25.00;98.10
36990;DHT22;22898;52.102;5.776;2023-05-09T07:00:15;24.90;98.30
36990;DHT22;22898;52.102;5.776;2023-05-09T07:02:40;24.80;97.90
36990;DHT22;22898;52.102;5.776;2023-05-09T07:05:07;24.70;97.60
36990;DHT22;22898;52.102;5.776;2023-05-09T07:07:34;24.70;97.90
36990;DHT22;22898;52.102;5.776;2023-05-09T07:09:59;25.00;97.60
36990;DHT22;22898;52.102;5.776;2023-05-09T07:12:30;25.20;97.30
36990;DHT22;22898;52.102;5.776;2023-05-09T07:14:55;25.10;97.80
36990;DHT22;22898;52.102;5.776;2023-05-09T07:17:23;24.60;97.90
36990;DHT22;22898;52.102;5.776;2023-05-09T07:19:50;24.50;97.90
36990;DHT22;22898;52.102;5.776;2023-05-09T07:22:15;24.70;97.70
36990;DHT22;22898;52.102;5.776;2023-05-09T07:24:41;24.80;97.60
36990;DHT22;22898;52.102;5.776;2023-05-09T07:27:08;25.00;97.00
36990;DHT22;22898;52.102;5.776;2023-05-09T07:29:34;25.10;97.30
36990;DHT22;22898;52.102;5.776;2023-05-09T07:31:59;25.20;97.20
36990;DHT22;22898;52.102;5.776;2023-05-09T07:34:25;25.30;96.80
36990;DHT22;22898;52.102;5.776;2023-05-09T07:36:51;25.40;96.90
36990;DHT22;22898;52.102;5.776;2023-05-09T07:39:16;25.20;97.20
36990;DHT22;22898;52.102;5.776;2023-05-09T07:41:42;25.30;97.30
36990;DHT22;22898;52.102;5.776;2023-05-09T07:44:07;25.10;97.20
36990;DHT22;22898;52.102;5.776;2023-05-09T07:46:35;25.20;97.20
36990;DHT22;22898;52.102;5.776;2023-05-09T07:49:02;25.10;97.00
36990;DHT22;22898;52.102;5.776;2023-05-09T07:51:27;24.90;97.50
36990;DHT22;22898;52.102;5.776;2023-05-09T07:53:53;24.80;97.70
36990;DHT22;22898;52.102;5.776;2023-05-09T07:56:20;25.00;97.20
36990;DHT22;22898;52.102;5.776;2023-05-09T07:58:47;25.20;97.00
36990;DHT22;22898;52.102;5.776;2023-05-09T08:01:12;25.20;96.70
36990;DHT22;22898;52.102;5.776;2023-05-09T08:03:38;24.80;97.50
36990;DHT22;22898;52.102;5.776;2023-05-09T08:06:04;24.90;97.70
36990;DHT22;22898;52.102;5.776;2023-05-09T08:08:30;24.90;97.30
36990;DHT22;22898;52.102;5.776;2023-05-09T08:10:56;25.00;97.70
36990;DHT22;22898;52.102;5.776;2023-05-09T08:13:21;25.10;97.70
36990;DHT22;22898;52.102;5.776;2023-05-09T08:15:47;25.30;97.10
36990;DHT22;22898;52.102;5.776;2023-05-09T08:18:13;25.50;97.30
36990;DHT22;22898;52.102;5.776;2023-05-09T08:20:39;25.70;96.60
36990;DHT22;22898;52.102;5.776;2023-05-09T08:23:05;25.90;96.60
36990;DHT22;22898;52.102;5.776;2023-05-09T08:25:31;25.90;96.50
36990;DHT22;22898;52.102;5.776;2023-05-09T08:27:56;25.80;96.50
36990;DHT22;22898;52.102;5.776;2023-05-09T08:30:22;25.70;97.30
36990;DHT22;22898;52.102;5.776;2023-05-09T08:32:48;25.40;96.80
36990;DHT22;22898;52.102;5.776;2023-05-09T08:35:13;25.50;97.00
36990;DHT22;22898;52.102;5.776;2023-05-09T08:37:39;25.90;96.60
36990;DHT22;22898;52.102;5.776;2023-05-09T08:40:05;25.90;96.70
36990;DHT22;22898;52.102;5.776;2023-05-09T08:42:35;25.60;96.80
36990;DHT22;22898;52.102;5.776;2023-05-09T08:45:09;25.30;97.50
36990;DHT22;22898;52.102;5.776;2023-05-09T08:47:39;25.10;97.80
36990;DHT22;22898;52.102;5.776;2023-05-09T08:50:05;25.10;97.60
36990;DHT22;22898;52.102;5.776;2023-05-09T08:52:32;25.10;97.90
36990;DHT22;22898;52.102;5.776;2023-05-09T08:54:58;25.10;97.70
36990;DHT22;22898;52.102;5.776;2023-05-09T08:57:25;25.00;98.00
36990;DHT22;22898;52.102;5.776;2023-05-09T08:59:52;25.20;97.70
36990;DHT22;22898;52.102;5.776;2023-05-09T09:02:18;25.20;97.20
36990;DHT22;22898;52.102;5.776;2023-05-09T09:04:44;24.70;98.20
36990;DHT22;22898;52.102;5.776;2023-05-09T09:07:11;24.60;98.40
36990;DHT22;22898;52.102;5.776;2023-05-09T09:09:43;24.90;98.10
36990;DHT22;22898;52.102;5.776;2023-05-09T09:12:10;24.70;98.10
36990;DHT22;22898;52.102;5.776;2023-05-09T09:14:38;24.20;98.60
36990;DHT22;22898;52.102;5.776;2023-05-09T09:17:05;23.20;99.80
36990;DHT22;22898;52.102;5.776;2023-05-09T09:19:33;22.60;99.90
36990;DHT22;22898;52.102;5.776;2023-05-09T09:22:02;22.20;99.90
36990;DHT22;22898;52.102;5.776;2023-05-09T09:24:29;21.90;99.90
36990;DHT22;22898;52.102;5.776;2023-05-09T09:26:55;21.40;99.90
36990;DHT22;22898;52.102;5.776;2023-05-09T09:29:21;21.00;99.90
36990;DHT22;22898;52.102;5.776;2023-05-09T09:31:51;21.20;99.90
36990;DHT22;22898;52.102;5.776;2023-05-09T09:34:22;21.50;99.90
36990;DHT22;22898;52.102;5.776;2023-05-09T09:36:48;21.60;99.90
36990;DHT22;22898;52.102;5.776;2023-05-09T09:39:14;21.60;99.90
36990;DHT22;22898;52.102;5.776;2023-05-09T09:41:40;21.80;99.90
36990;DHT22;22898;52.102;5.776;2023-05-09T09:44:14;22.20;99.90
36990;DHT22;22898;52.102;5.776;2023-05-09T09:46:44;22.80;99.90
36990;DHT22;22898;52.102;5.776;2023-05-09T09:49:12;23.20;99.90
36990;DHT22;22898;52.102;5.776;2023-05-09T09:51:39;23.00;99.90
36990;DHT22;22898;52.102;5.776;2023-05-09T09:54:09;23.20;99.90
36990;DHT22;22898;52.102;5.776;2023-05-09T09:56:43;23.30;99.90
36990;DHT22;22898;52.102;5.776;2023-05-09T09:59:13;23.40;99.90
36990;DHT22;22898;52.102;5.776;2023-05-09T10:04:20;24.00;99.80
36990;DHT22;22898;52.102;5.776;2023-05-09T10:06:55;24.10;99.30
36990;DHT22;22898;52.102;5.776;2023-05-09T10:09:22;23.80;99.90
36990;DHT22;22898;52.102;5.776;2023-05-09T10:11:50;24.20;99.90
36990;DHT22;22898;52.102;5.776;2023-05-09T10:14:18;24.20;99.90
36990;DHT22;22898;52.102;5.776;2023-05-09T10:16:50;24.40;99.90
36990;DHT22;22898;52.102;5.776;2023-05-09T10:19:20;24.50;99.50
36990;DHT22;22898;52.102;5.776;2023-05-09T10:21:52;24.10;99.90
36990;DHT22;22898;52.102;5.776;2023-05-09T10:24:25;24.20;99.70
36990;DHT22;22898;52.102;5.776;2023-05-09T10:26:52;23.80;99.90
36990;DHT22;22898;52.102;5.776;2023-05-09T10:29:24;23.70;99.90
36990;DHT22;22898;52.102;5.776;2023-05-09T10:31:58;24.00;99.90
36990;DHT22;22898;52.102;5.776;2023-05-09T10:34:24;23.80;99.90
36990;DHT22;22898;52.102;5.776;2023-05-09T10:36:50;24.00;99.90
36990;DHT22;22898;52.102;5.776;2023-05-09T10:39:16;24.20;99.70
36990;DHT22;22898;52.102;5.776;2023-05-09T10:41:43;23.80;99.70
36990;DHT22;22898;52.102;5.776;2023-05-09T10:44:09;23.50;99.90
36990;DHT22;22898;52.102;5.776;2023-05-09T10:46:35;23.10;99.90
36990;DHT22;22898;52.102;5.776;2023-05-09T10:49:01;22.70;99.90
36990;DHT22;22898;52.102;5.776;2023-05-09T10:51:27;22.80;99.90
36990;DHT22;22898;52.102;5.776;2023-05-09T10:53:53;22.50;99.90
36990;DHT22;22898;52.102;5.776;2023-05-09T10:58:49;22.60;99.90
36990;DHT22;22898;52.102;5.776;2023-05-09T11:01:28;22.20;99.90
36990;DHT22;22898;52.102;5.776;2023-05-09T11:03:56;22.30;99.90
36990;DHT22;22898;52.102;5.776;2023-05-09T11:09:33;23.30;99.90
36990;DHT22;22898;52.102;5.776;2023-05-09T11:15:05;24.00;99.90
36990;DHT22;22898;52.102;5.776;2023-05-09T11:17:36;24.20;99.90
36990;DHT22;22898;52.102;5.776;2023-05-09T11:20:04;24.30;99.90
36990;DHT22;22898;52.102;5.776;2023-05-09T11:22:40;24.20;99.90
36990;DHT22;22898;52.102;5.776;2023-05-09T11:25:10;24.30;99.90
36990;DHT22;22898;52.102;5.776;2023-05-09T11:27:48;24.10;99.90
36990;DHT22;22898;52.102;5.776;2023-05-09T11:30:16;23.90;99.90
36990;DHT22;22898;52.102;5.776;2023-05-09T11:32:53;23.30;99.90
36990;DHT22;22898;52.102;5.776;2023-05-09T11:35:21;22.90;99.90
36990;DHT22;22898;52.102;5.776;2023-05-09T11:38:05;22.90;99.90
36990;DHT22;22898;52.102;5.776;2023-05-09T11:40:33;23.00;99.90
36990;DHT22;22898;52.102;5.776;2023-05-09T11:42:59;23.20;99.90
36990;DHT22;22898;52.102;5.776;2023-05-09T11:45:30;22.90;99.90
36990;DHT22;22898;52.102;5.776;2023-05-09T11:47:56;23.00;99.90
36990;DHT22;22898;52.102;5.776;2023-05-09T11:50:22;23.20;99.90
36990;DHT22;22898;52.102;5.776;2023-05-09T11:52:49;23.40;99.90
36990;DHT22;22898;52.102;5.776;2023-05-09T11:55:16;23.50;99.90
36990;DHT22;22898;52.102;5.776;2023-05-09T11:57:48;23.60;99.90
36990;DHT22;22898;52.102;5.776;2023-05-09T12:00:22;23.90;99.90
36990;DHT22;22898;52.102;5.776;2023-05-09T12:02:48;24.00;99.90
36990;DHT22;22898;52.102;5.776;2023-05-09T12:05:16;23.80;99.90
36990;DHT22;22898;52.102;5.776;2023-05-09T12:07:43;24.10;99.90
36990;DHT22;22898;52.102;5.776;2023-05-09T12:12:44;24.50;99.90
36990;DHT22;22898;52.102;5.776;2023-05-09T12:15:10;24.50;99.90
36990;DHT22;22898;52.102;5.776;2023-05-09T12:17:38;24.30;99.90
36990;DHT22;22898;52.102;5.776;2023-05-09T12:20:05;24.30;99.90
36990;DHT22;22898;52.102;5.776;2023-05-09T12:22:31;24.50;99.90
36990;DHT22;22898;52.102;5.776;2023-05-09T12:25:00;24.20;99.90
36990;DHT22;22898;52.102;5.776;2023-05-09T12:27:30;24.30;99.90
36990;DHT22;22898;52.102;5.776;2023-05-09T12:29:58;24.60;99.90
36990;DHT22;22898;52.102;5.776;2023-05-09T12:32:24;24.90;99.90
36990;DHT22;22898;52.102;5.776;2023-05-09T12:34:56;24.90;99.90
36990;DHT22;22898;52.102;5.776;2023-05-09T12:37:21;24.60;99.90
36990;DHT22;22898;52.102;5.776;2023-05-09T12:40:09;24.70;99.90
36990;DHT22;22898;52.102;5.776;2023-05-09T12:42:37;25.00;99.90
36990;DHT22;22898;52.102;5.776;2023-05-09T12:45:06;24.90;99.90
36990;DHT22;22898;52.102;5.776;2023-05-09T12:47:32;24.70;99.90
36990;DHT22;22898;52.102;5.776;2023-05-09T12:49:59;24.70;99.90
36990;DHT22;22898;52.102;5.776;2023-05-09T12:52:24;24.80;99.90
36990;DHT22;22898;52.102;5.776;2023-05-09T12:54:52;25.00;99.90
36990;DHT22;22898;52.102;5.776;2023-05-09T12:57:22;25.00;99.90
36990;DHT22;22898;52.102;5.776;2023-05-09T12:59:49;24.90;99.90
36990;DHT22;22898;52.102;5.776;2023-05-09T13:02:14;24.80;99.90
36990;DHT22;22898;52.102;5.776;2023-05-09T13:04:40;24.70;99.90
36990;DHT22;22898;52.102;5.776;2023-05-09T13:07:09;24.40;99.90
36990;DHT22;22898;52.102;5.776;2023-05-09T13:09:35;24.10;99.90
36990;DHT22;22898;52.102;5.776;2023-05-09T13:12:02;24.20;99.90
36990;DHT22;22898;52.102;5.776;2023-05-09T13:14:34;24.20;99.90
36990;DHT22;22898;52.102;5.776;2023-05-09T13:16:59;24.30;99.90
36990;DHT22;22898;52.102;5.776;2023-05-09T13:19:25;24.20;99.90
36990;DHT22;22898;52.102;5.776;2023-05-09T13:21:53;24.20;99.90
36990;DHT22;22898;52.102;5.776;2023-05-09T13:24:19;24.40;99.90
36990;DHT22;22898;52.102;5.776;2023-05-09T13:26:45;24.50;99.90
36990;DHT22;22898;52.102;5.776;2023-05-09T13:29:10;24.40;99.90
36990;DHT22;22898;52.102;5.776;2023-05-09T13:31:36;24.40;99.90
36990;DHT22;22898;52.102;5.776;2023-05-09T13:34:01;24.50;99.90
36990;DHT22;22898;52.102;5.776;2023-05-09T13:36:27;24.50;99.90
36990;DHT22;22898;52.102;5.776;2023-05-09T13:38:52;24.60;99.90
36990;DHT22;22898;52.102;5.776;2023-05-09T13:41:18;24.70;99.90
36990;DHT22;22898;52.102;5.776;2023-05-09T13:43:48;24.80;99.90
36990;DHT22;22898;52.102;5.776;2023-05-09T13:46:13;24.80;99.90
36990;DHT22;22898;52.102;5.776;2023-05-09T13:48:39;24.50;99.90
36990;DHT22;22898;52.102;5.776;2023-05-09T13:51:06;24.40;99.90
36990;DHT22;22898;52.102;5.776;2023-05-09T13:53:32;24.20;99.90
36990;DHT22;22898;52.102;5.776;2023-05-09T13:55:58;24.10;99.90
36990;DHT22;22898;52.102;5.776;2023-05-09T13:58:23;24.00;99.90
36990;DHT22;22898;52.102;5.776;2023-05-09T14:00:49;24.00;99.90
36990;DHT22;22898;52.102;5.776;2023-05-09T14:03:14;23.90;99.90
36990;DHT22;22898;52.102;5.776;2023-05-09T14:05:40;24.10;99.90
36990;DHT22;22898;52.102;5.776;2023-05-09T14:08:06;24.00;99.90
36990;DHT22;22898;52.102;5.776;2023-05-09T14:10:32;23.80;99.90
36990;DHT22;22898;52.102;5.776;2023-05-09T14:12:57;23.90;99.90
36990;DHT22;22898;52.102;5.776;2023-05-09T14:15:24;24.00;99.90
36990;DHT22;22898;52.102;5.776;2023-05-09T14:17:50;24.00;99.90
36990;DHT22;22898;52.102;5.776;2023-05-09T14:20:16;24.20;99.90
36990;DHT22;22898;52.102;5.776;2023-05-09T14:22:41;24.40;99.90
36990;DHT22;22898;52.102;5.776;2023-05-09T14:25:07;24.10;99.90
36990;DHT22;22898;52.102;5.776;2023-05-09T14:27:33;23.90;99.90
36990;DHT22;22898;52.102;5.776;2023-05-09T14:30:02;24.00;99.90
36990;DHT22;22898;52.102;5.776;2023-05-09T14:32:27;23.80;99.90
36990;DHT22;22898;52.102;5.776;2023-05-09T14:34:53;23.90;99.90
36990;DHT22;22898;52.102;5.776;2023-05-09T14:37:18;23.80;99.90
36990;DHT22;22898;52.102;5.776;2023-05-09T14:39:44;24.10;99.90
36990;DHT22;22898;52.102;5.776;2023-05-09T14:42:11;24.20;99.90
36990;DHT22;22898;52.102;5.776;2023-05-09T14:44:38;24.20;99.90
36990;DHT22;22898;52.102;5.776;2023-05-09T14:47:04;23.90;99.90
36990;DHT22;22898;52.102;5.776;2023-05-09T14:49:30;24.00;99.90
36990;DHT22;22898;52.102;5.776;2023-05-09T14:51:56;24.10;99.90
36990;DHT22;22898;52.102;5.776;2023-05-09T14:54:21;24.20;99.90
36990;DHT22;22898;52.102;5.776;2023-05-09T14:56:48;24.20;99.90
36990;DHT22;22898;52.102;5.776;2023-05-09T14:59:14;24.30;99.90
36990;DHT22;22898;52.102;5.776;2023-05-09T15:01:39;24.30;99.90
36990;DHT22;22898;52.102;5.776;2023-05-09T15:04:05;23.90;99.90
36990;DHT22;22898;52.102;5.776;2023-05-09T15:06:31;23.90;99.90
36990;DHT22;22898;52.102;5.776;2023-05-09T15:08:56;24.00;99.90
36990;DHT22;22898;52.102;5.776;2023-05-09T15:11:22;24.00;99.90
36990;DHT22;22898;52.102;5.776;2023-05-09T15:13:49;24.10;99.90
36990;DHT22;22898;52.102;5.776;2023-05-09T15:16:15;24.10;99.90
36990;DHT22;22898;52.102;5.776;2023-05-09T15:18:40;24.20;99.90
36990;DHT22;22898;52.102;5.776;2023-05-09T15:21:09;24.30;99.90
36990;DHT22;22898;52.102;5.776;2023-05-09T15:23:35;24.30;99.90
36990;DHT22;22898;52.102;5.776;2023-05-09T15:26:01;24.50;99.90
36990;DHT22;22898;52.102;5.776;2023-05-09T15:28:26;24.80;99.90
36990;DHT22;22898;52.102;5.776;2023-05-09T15:30:52;24.80;99.90
36990;DHT22;22898;52.102;5.776;2023-05-09T15:33:18;24.90;99.90
36990;DHT22;22898;52.102;5.776;2023-05-09T15:35:44;24.80;99.90
36990;DHT22;22898;52.102;5.776;2023-05-09T15:38:10;24.70;99.90
36990;DHT22;22898;52.102;5.776;2023-05-09T15:40:38;24.70;99.90
36990;DHT22;22898;52.102;5.776;2023-05-09T15:43:04;24.60;99.90